Time;durP1;ratioP1;P1;durP2;ratioP2;P2;SDS_P1;SDS_P2;PMS_P1;PMS_P2;Temp;Humidity;BMP_temperature;BMP_pressure;BME280_temperature;BME280_humidity;BME280_pressure;Samples;Min_cycle;Max_cycle;Signal;HPM_P1;HPM_P2
2023/02/15 00:01:11;;;;;;;39.00;23.17;;;2.30;99.90;;;;;;5016057;28;20232;-68
2023/02/15 00:03:37;;;;;;;29.20;21.60;;;2.30;99.90;;;;;;5003647;28;20258;-68
2023/02/15 00:06:03;;;;;;;31.27;22.13;;;2.30;99.90;;;;;;5004720;28;20541;-67
2023/02/15 00:08:29;;;;;;;29.70;21.23;;;2.30;99.90;;;;;;5005770;28;21006;-68
2023/02/15 00:11:10;;;;;;;33.80;22.37;;;2.20;99.90;;;;;;5007413;28;20500;-67
2023/02/15 00:13:36;;;;;;;31.47;21.80;;;2.20;99.90;;;;;;5002788;28;20237;-67
2023/02/15 00:16:07;;;;;;;34.23;22.77;;;2.10;99.90;;;;;;5003086;28;20861;-68
2023/02/15 00:18:33;;;;;;;31.67;21.17;;;2.10;99.90;;;;;;5012500;28;20519;-67
2023/02/15 00:21:03;;;;;;;29.20;21.83;;;2.10;99.90;;;;;;5010038;28;20461;-67
2023/02/15 00:23:29;;;;;;;34.30;23.00;;;2.20;99.90;;;;;;5012929;28;20187;-67
2023/02/15 00:26:09;;;;;;;31.43;21.77;;;2.20;99.90;;;;;;5008049;28;21061;-67
2023/02/15 00:28:35;;;;;;;29.80;21.20;;;2.20;99.90;;;;;;5013457;28;20202;-67
2023/02/15 00:31:05;;;;;;;34.90;22.97;;;2.20;99.90;;;;;;5012662;28;20487;-67
2023/02/15 00:33:31;;;;;;;27.57;21.13;;;2.30;99.90;;;;;;5004852;28;20175;-67
2023/02/15 00:35:58;;;;;;;36.53;22.17;;;2.30;99.90;;;;;;5006086;28;20965;-67
2023/02/15 00:38:23;;;;;;;27.53;19.67;;;2.20;99.90;;;;;;5002592;28;20617;-67
2023/02/15 00:40:57;;;;;;;27.73;21.80;;;2.20;99.90;;;;;;5002443;28;20535;-68
2023/02/15 00:43:23;;;;;;;33.37;22.90;;;2.20;99.90;;;;;;5005158;28;20255;-67
2023/02/15 00:45:48;;;;;;;34.87;23.17;;;2.10;99.90;;;;;;5012356;28;20529;-67
2023/02/15 00:48:14;;;;;;;34.60;24.93;;;2.20;99.90;;;;;;5004496;28;20206;-68
2023/02/15 00:50:39;;;;;;;31.53;22.67;;;2.10;99.90;;;;;;5013430;28;20613;-67
2023/02/15 00:53:05;;;;;;;26.80;19.60;;;2.20;99.90;;;;;;5001727;28;20617;-67
2023/02/15 00:55:31;;;;;;;31.97;21.43;;;2.20;99.90;;;;;;4993677;28;20278;-67
2023/02/15 00:57:56;;;;;;;30.67;20.90;;;2.10;99.90;;;;;;5008115;28;20647;-67
2023/02/15 01:00:22;;;;;;;31.07;20.27;;;2.00;99.90;;;;;;5003625;28;20215;-68
2023/02/15 01:02:47;;;;;;;31.53;20.40;;;2.10;99.90;;;;;;5006206;28;20202;-67
2023/02/15 01:05:13;;;;;;;31.23;19.57;;;2.10;99.90;;;;;;5005482;28;20709;-67
2023/02/15 01:07:39;;;;;;;30.40;21.40;;;2.10;99.90;;;;;;5010657;28;20221;-67
2023/02/15 01:10:06;;;;;;;26.53;20.40;;;2.00;99.90;;;;;;5007655;28;20213;-67
2023/02/15 01:12:32;;;;;;;30.73;21.43;;;2.00;99.90;;;;;;5012706;28;20217;-67
2023/02/15 01:14:57;;;;;;;29.67;20.70;;;2.00;99.90;;;;;;5004995;28;20433;-67
2023/02/15 01:17:23;;;;;;;33.17;21.23;;;2.00;99.90;;;;;;4998079;28;20442;-67
2023/02/15 01:19:49;;;;;;;28.47;18.33;;;1.90;99.90;;;;;;5005148;28;20196;-67
2023/02/15 01:22:14;;;;;;;29.93;20.80;;;1.90;99.90;;;;;;5006187;28;20667;-68
2023/02/15 01:24:40;;;;;;;27.00;18.30;;;1.80;99.90;;;;;;5009990;28;20198;-67
2023/02/15 01:27:05;;;;;;;29.87;20.83;;;1.80;99.90;;;;;;5004603;28;20200;-67
2023/02/15 01:29:31;;;;;;;29.60;21.30;;;1.70;99.90;;;;;;5008205;28;20257;-67
2023/02/15 01:31:56;;;;;;;29.33;20.10;;;1.80;99.90;;;;;;5013841;28;20679;-68
2023/02/15 01:34:22;;;;;;;27.00;19.23;;;1.80;99.90;;;;;;5005880;28;20595;-68
2023/02/15 01:36:48;;;;;;;27.03;19.03;;;1.80;99.90;;;;;;5006136;28;20261;-68
2023/02/15 01:39:14;;;;;;;26.23;18.63;;;1.70;99.90;;;;;;5003598;28;20269;-67
2023/02/15 01:41:40;;;;;;;26.43;18.93;;;1.70;99.90;;;;;;5004015;28;20447;-68
2023/02/15 01:44:43;;;;;;;29.10;18.10;;;1.70;99.90;;;;;;5005454;28;20488;-67
2023/02/15 01:47:14;;;;;;;28.73;19.50;;;1.60;99.90;;;;;;5001902;28;20182;-67
2023/02/15 01:49:42;;;;;;;26.47;18.57;;;1.60;99.90;;;;;;5002077;28;20511;-68
2023/02/15 01:52:09;;;;;;;26.27;19.00;;;1.60;99.90;;;;;;5003953;28;20846;-68
2023/02/15 01:54:38;;;;;;;29.40;18.87;;;1.60;99.90;;;;;;5003471;28;20483;-67
2023/02/15 01:57:08;;;;;;;29.33;19.80;;;1.60;99.90;;;;;;5005657;28;20535;-67
2023/02/15 01:59:37;;;;;;;25.17;18.47;;;1.60;99.90;;;;;;4999962;28;20474;-67
2023/02/15 02:02:06;;;;;;;30.83;20.60;;;1.60;99.90;;;;;;5007333;28;20848;-67
2023/02/15 02:04:41;;;;;;;27.77;18.93;;;1.70;99.90;;;;;;5011849;28;20473;-67
2023/02/15 02:07:07;;;;;;;30.07;18.57;;;1.70;99.90;;;;;;5008688;28;20437;-67
2023/02/15 02:09:35;;;;;;;26.93;18.93;;;1.70;99.90;;;;;;5008168;28;20450;-67
2023/02/15 02:12:01;;;;;;;28.40;19.53;;;1.60;99.90;;;;;;4997743;28;20558;-67
2023/02/15 02:14:27;;;;;;;25.20;18.87;;;1.60;99.90;;;;;;5005380;28;20954;-67
2023/02/15 02:17:06;;;;;;;27.60;18.07;;;1.50;99.90;;;;;;5010656;28;20524;-68
2023/02/15 02:19:59;;;;;;;27.97;19.20;;;1.60;99.90;;;;;;5008679;28;20217;-67
2023/02/15 02:22:33;;;;;;;28.83;20.37;;;1.50;99.90;;;;;;5008350;28;20432;-67
2023/02/15 02:25:45;;;;;;;27.77;20.00;;;1.60;99.90;;;;;;5007908;28;20437;-67
2023/02/15 02:28:41;;;;;;;28.13;22.27;;;1.60;99.90;;;;;;5005186;28;20438;-67
2023/02/15 02:31:28;;;;;;;30.43;21.33;;;1.60;99.90;;;;;;5004705;28;20466;-68
2023/02/15 02:34:26;;;;;;;33.80;20.40;;;1.60;99.90;;;;;;5009632;28;20433;-67
2023/02/15 02:37:12;;;;;;;28.13;18.57;;;1.60;99.90;;;;;;5005072;28;20417;-67
2023/02/15 02:39:53;;;;;;;32.73;19.60;;;1.60;99.90;;;;;;5006261;28;20546;-67
2023/02/15 02:42:27;;;;;;;30.83;20.97;;;1.60;99.90;;;;;;5009832;28;20476;-67
2023/02/15 02:45:00;;;;;;;26.40;19.53;;;1.60;99.90;;;;;;5010778;28;20452;-67
2023/02/15 02:47:43;;;;;;;32.93;19.33;;;1.50;99.90;;;;;;5011932;28;20953;-67
2023/02/15 02:50:15;;;;;;;32.37;20.57;;;1.50;99.90;;;;;;5010927;28;20449;-67
2023/02/15 02:52:49;;;;;;;26.47;17.93;;;1.50;99.90;;;;;;5009438;28;20561;-67
2023/02/15 02:55:23;;;;;;;36.40;22.17;;;1.40;99.90;;;;;;5005319;28;20434;-68
2023/02/15 02:58:11;;;;;;;32.17;19.53;;;1.40;99.90;;;;;;5003720;28;20458;-67
2023/02/15 03:01:01;;;;;;;28.80;18.10;;;1.40;99.90;;;;;;5006996;28;20483;-67
2023/02/15 03:03:40;;;;;;;28.13;19.90;;;1.30;99.90;;;;;;5010744;28;20429;-67
2023/02/15 03:06:17;;;;;;;27.60;18.20;;;1.20;99.90;;;;;;5009685;28;20429;-68
2023/02/15 03:08:54;;;;;;;29.67;18.97;;;1.20;99.90;;;;;;5011377;28;20445;-68
2023/02/15 03:11:20;;;;;;;29.03;19.13;;;1.20;99.90;;;;;;5002791;28;20560;-67
2023/02/15 03:13:48;;;;;;;27.20;19.50;;;1.20;99.90;;;;;;5003114;28;20521;-67
2023/02/15 03:16:25;;;;;;;27.10;20.10;;;1.20;99.90;;;;;;5011219;28;20182;-67
2023/02/15 03:18:57;;;;;;;29.03;20.27;;;1.20;99.90;;;;;;5001382;28;20456;-68
2023/02/15 03:21:49;;;;;;;26.00;19.33;;;1.20;99.90;;;;;;5011493;28;20488;-67
2023/02/15 03:24:21;;;;;;;26.93;20.80;;;1.10;99.90;;;;;;5009604;28;20440;-68
2023/02/15 03:26:51;;;;;;;26.03;19.70;;;1.10;99.90;;;;;;5012928;28;20446;-67
2023/02/15 03:29:20;;;;;;;30.00;20.43;;;1.00;99.90;;;;;;5012249;28;20458;-68
2023/02/15 03:31:52;;;;;;;27.37;19.73;;;1.10;99.90;;;;;;5012157;28;20461;-67
2023/02/15 03:34:18;;;;;;;29.47;19.93;;;1.10;99.90;;;;;;5010826;28;20440;-67
2023/02/15 03:36:46;;;;;;;28.13;19.07;;;1.10;99.90;;;;;;5006031;28;20806;-67
2023/02/15 03:39:30;;;;;;;25.80;19.90;;;1.00;99.90;;;;;;5004091;28;20704;-68
2023/02/15 03:42:17;;;;;;;26.63;18.73;;;1.00;99.90;;;;;;5004348;28;20437;-67
2023/02/15 03:44:59;;;;;;;22.23;16.23;;;1.00;99.90;;;;;;5002728;28;20475;-67
2023/02/15 03:47:32;;;;;;;22.13;16.57;;;0.90;99.90;;;;;;4995769;28;20858;-67
2023/02/15 03:51:33;;;;;;;27.57;19.87;;;0.90;99.90;;;;;;4998969;28;20466;-67
2023/02/15 03:52:58;;;;;;;33.63;19.70;;;0.90;99.90;;;;;;5007577;28;20839;-67
2023/02/15 03:55:23;;;;;;;27.97;18.13;;;0.90;99.90;;;;;;5011779;28;20985;-68
2023/02/15 04:03:55;;;;;;;27.60;19.10;;;0.90;99.90;;;;;;5014245;28;20532;-68
2023/02/15 04:06:21;;;;;;;30.47;21.23;;;0.80;99.90;;;;;;5007690;28;20449;-68
2023/02/15 04:11:30;;;;;;;35.47;21.90;;;0.80;99.90;;;;;;5006536;28;20221;-67
2023/02/15 04:13:57;;;;;;;34.80;23.77;;;0.80;99.90;;;;;;5008214;28;20434;-67
2023/02/15 04:16:24;;;;;;;28.80;20.40;;;0.80;99.90;;;;;;5007605;28;20540;-67
2023/02/15 04:27:04;;;;;;;31.37;21.57;;;0.70;99.90;;;;;;5005854;28;20459;-67
2023/02/15 04:29:30;;;;;;;29.90;21.87;;;0.70;99.90;;;;;;5012583;28;20887;-67
2023/02/15 04:31:57;;;;;;;38.17;22.80;;;0.70;99.90;;;;;;5012766;28;20458;-67
2023/02/15 04:34:22;;;;;;;27.63;20.60;;;0.70;99.90;;;;;;5000994;28;20439;-67
2023/02/15 04:36:50;;;;;;;28.00;19.27;;;0.70;99.90;;;;;;5003036;28;20433;-67
2023/02/15 04:39:17;;;;;;;26.47;20.00;;;0.70;99.90;;;;;;5005539;28;20355;-67
2023/02/15 04:41:43;;;;;;;31.40;19.90;;;0.60;99.90;;;;;;5003988;28;20973;-67
2023/02/15 04:44:09;;;;;;;31.23;19.90;;;0.60;99.90;;;;;;5012666;28;20485;-68
2023/02/15 04:46:35;;;;;;;33.07;19.93;;;0.60;99.90;;;;;;5009153;28;20813;-67
2023/02/15 04:49:00;;;;;;;36.60;22.40;;;0.60;99.90;;;;;;5000223;28;20282;-67
2023/02/15 04:51:26;;;;;;;30.80;20.40;;;0.60;99.90;;;;;;5007178;28;20210;-67
2023/02/15 04:53:54;;;;;;;30.37;20.83;;;0.60;99.90;;;;;;5013054;28;20197;-67
2023/02/15 04:56:20;;;;;;;35.67;22.80;;;0.60;99.90;;;;;;5010908;28;20257;-67
2023/02/15 04:58:46;;;;;;;26.40;19.70;;;0.60;99.90;;;;;;5002779;28;20507;-67
2023/02/15 05:01:12;;;;;;;29.07;19.90;;;0.60;99.90;;;;;;5000387;28;20445;-67
2023/02/15 05:03:37;;;;;;;31.90;22.27;;;0.50;99.90;;;;;;5008925;28;20187;-67
2023/02/15 05:06:04;;;;;;;32.30;20.40;;;0.50;99.90;;;;;;5005587;28;20441;-67
2023/02/15 05:08:30;;;;;;;34.80;21.23;;;0.50;99.90;;;;;;5002899;28;20698;-67
2023/02/15 05:10:56;;;;;;;29.70;20.97;;;0.50;99.90;;;;;;5009425;28;20872;-68
2023/02/15 05:13:22;;;;;;;35.30;22.63;;;0.50;99.90;;;;;;5011073;28;20810;-67
2023/02/15 05:15:49;;;;;;;32.53;21.57;;;0.40;99.90;;;;;;5008351;28;20892;-67
2023/02/15 05:18:15;;;;;;;32.03;22.33;;;0.40;99.90;;;;;;5006443;28;20460;-67
2023/02/15 05:20:41;;;;;;;29.70;21.90;;;0.50;99.90;;;;;;5009039;28;20433;-67
2023/02/15 05:23:06;;;;;;;29.97;18.37;;;0.50;99.90;;;;;;5010380;28;20440;-67
2023/02/15 05:28:20;;;;;;;30.43;20.87;;;0.40;99.90;;;;;;4998814;28;20229;-67
2023/02/15 05:30:48;;;;;;;27.10;19.97;;;0.40;99.90;;;;;;5006790;28;20466;-68
2023/02/15 05:33:14;;;;;;;26.77;20.03;;;0.40;99.90;;;;;;5007504;28;20438;-67
2023/02/15 05:35:39;;;;;;;25.43;18.10;;;0.40;99.90;;;;;;5007094;28;20434;-67
2023/02/15 05:38:05;;;;;;;30.63;18.50;;;0.30;99.90;;;;;;5003795;28;20558;-67
2023/02/15 05:40:30;;;;;;;29.13;21.10;;;0.30;99.90;;;;;;5010269;28;20273;-68
2023/02/15 05:42:56;;;;;;;30.60;19.90;;;0.30;99.90;;;;;;5013271;28;20232;-68
2023/02/15 05:45:22;;;;;;;29.70;19.77;;;0.30;99.90;;;;;;5002885;28;20194;-68
2023/02/15 05:47:47;;;;;;;29.53;19.93;;;0.30;99.90;;;;;;5003189;28;20229;-67
2023/02/15 05:50:13;;;;;;;30.83;20.03;;;0.20;99.90;;;;;;5002938;28;20209;-67
2023/02/15 05:52:38;;;;;;;31.60;20.00;;;0.20;99.90;;;;;;5010493;28;20209;-68
2023/02/15 05:55:05;;;;;;;29.53;20.27;;;0.20;99.90;;;;;;5012338;28;20190;-68
2023/02/15 05:57:30;;;;;;;30.87;19.07;;;0.10;99.90;;;;;;5005565;28;20198;-68
2023/02/15 05:59:56;;;;;;;27.37;20.33;;;0.10;99.90;;;;;;4994759;28;20968;-67
2023/02/15 06:02:22;;;;;;;31.17;19.90;;;0.10;99.90;;;;;;4998737;28;20231;-68
2023/02/15 06:04:47;;;;;;;30.03;19.00;;;0.10;99.90;;;;;;5009030;28;20183;-67
2023/02/15 06:07:13;;;;;;;30.40;20.03;;;0.20;99.90;;;;;;5007178;28;20190;-67
2023/02/15 06:09:39;;;;;;;27.10;20.17;;;0.10;99.90;;;;;;5013094;28;20206;-67
2023/02/15 06:12:04;;;;;;;27.60;19.20;;;0.20;99.90;;;;;;5009615;28;20664;-67
2023/02/15 06:14:30;;;;;;;29.10;20.57;;;0.20;99.90;;;;;;5012298;28;20190;-68
2023/02/15 06:16:55;;;;;;;31.90;20.37;;;0.20;99.90;;;;;;5010528;28;20185;-68
2023/02/15 06:19:22;;;;;;;32.03;20.10;;;0.20;99.90;;;;;;5002954;28;20267;-68
2023/02/15 06:21:48;;;;;;;33.53;21.07;;;0.20;99.90;;;;;;5014679;28;20183;-68
2023/02/15 06:24:14;;;;;;;25.70;19.20;;;0.20;99.90;;;;;;5010559;28;20938;-68
2023/02/15 06:26:39;;;;;;;27.33;20.93;;;0.20;99.90;;;;;;5014197;28;20536;-68
2023/02/15 06:29:05;;;;;;;29.10;20.30;;;0.20;99.90;;;;;;5011373;28;20281;-68
2023/02/15 06:31:30;;;;;;;29.93;19.93;;;0.20;99.90;;;;;;5014201;28;20206;-67
2023/02/15 06:34:01;;;;;;;25.57;19.20;;;0.20;99.90;;;;;;5009742;28;20172;-68
2023/02/15 06:36:30;;;;;;;30.87;20.27;;;0.10;99.90;;;;;;5010274;28;20166;-68
2023/02/15 06:38:56;;;;;;;27.20;19.37;;;0.10;99.90;;;;;;5010822;28;20462;-67
2023/02/15 06:41:22;;;;;;;30.13;21.07;;;0.10;99.90;;;;;;5010449;28;20445;-67
2023/02/15 06:43:48;;;;;;;32.27;21.20;;;0.20;99.90;;;;;;5012343;28;20576;-68
2023/02/15 06:46:13;;;;;;;32.63;21.17;;;0.20;99.90;;;;;;5010776;28;20449;-70
2023/02/15 06:48:39;;;;;;;32.67;21.80;;;0.30;99.90;;;;;;5004696;28;20214;-68
2023/02/15 06:51:04;;;;;;;24.13;19.03;;;0.30;99.90;;;;;;5006994;28;20210;-70
2023/02/15 06:53:30;;;;;;;35.07;21.43;;;0.40;99.90;;;;;;5007492;28;20183;-70
2023/02/15 06:56:08;;;;;;;29.00;20.40;;;0.40;99.90;;;;;;5011549;28;20262;-67
2023/02/15 06:58:40;;;;;;;31.53;20.20;;;0.50;99.90;;;;;;5007881;28;20202;-67
2023/02/15 07:01:07;;;;;;;35.57;21.60;;;0.50;99.90;;;;;;5006829;28;20449;-67
2023/02/15 07:03:33;;;;;;;28.97;21.27;;;0.50;99.90;;;;;;5009302;28;20516;-67
2023/02/15 07:06:02;;;;;;;31.13;19.93;;;0.50;99.90;;;;;;5014705;28;20449;-67
2023/02/15 07:08:28;;;;;;;28.60;20.40;;;0.50;99.90;;;;;;5013087;28;21513;-67
2023/02/15 07:12:40;;;;;;;27.30;19.40;;;0.60;99.90;;;;;;5010778;28;20524;-67
2023/02/15 07:13:42;;;;;;;26.47;19.83;;;0.80;99.90;;;;;;5007671;28;20448;-69
2023/02/15 07:16:08;;;;;;;29.47;20.27;;;1.20;99.90;;;;;;5003244;28;20437;-67
2023/02/15 07:18:33;;;;;;;24.57;19.20;;;1.60;99.90;;;;;;5000140;28;20453;-68
2023/02/15 07:20:59;;;;;;;25.27;21.00;;;1.90;99.90;;;;;;5007042;28;20189;-68
2023/02/15 07:23:25;;;;;;;29.03;21.97;;;2.40;99.90;;;;;;5011981;28;20197;-68
2023/02/15 07:25:57;;;;;;;23.50;18.83;;;2.70;99.90;;;;;;5011554;28;20228;-67
2023/02/15 07:28:22;;;;;;;26.97;19.00;;;3.00;99.90;;;;;;5013727;28;20457;-67
2023/02/15 07:30:48;;;;;;;23.70;18.30;;;3.40;99.90;;;;;;5011707;28;20437;-68
2023/02/15 07:33:23;;;;;;;23.67;18.97;;;3.70;99.90;;;;;;5006826;28;20195;-68
2023/02/15 07:35:49;;;;;;;25.43;18.40;;;4.00;99.90;;;;;;5009650;28;20198;-67
2023/02/15 07:38:15;;;;;;;24.90;18.50;;;4.20;99.90;;;;;;5002610;28;20430;-67
2023/02/15 07:40:41;;;;;;;25.30;20.10;;;4.60;99.90;;;;;;5009222;28;20503;-68
2023/02/15 07:43:07;;;;;;;25.60;18.00;;;4.70;99.90;;;;;;5014113;28;20848;-68
2023/02/15 07:45:32;;;;;;;24.23;19.67;;;4.80;99.90;;;;;;5009238;28;20175;-68
2023/02/15 07:47:59;;;;;;;23.00;17.83;;;5.00;99.90;;;;;;5010408;28;20178;-68
2023/02/15 07:50:25;;;;;;;23.00;19.47;;;5.00;99.90;;;;;;5009626;28;20676;-68
2023/02/15 07:52:50;;;;;;;25.20;18.43;;;5.10;99.90;;;;;;5008294;28;20466;-68
2023/02/15 07:55:16;;;;;;;27.40;19.57;;;5.30;99.90;;;;;;5003784;28;20187;-68
2023/02/15 07:57:46;;;;;;;28.90;21.03;;;5.60;99.90;;;;;;4998417;28;20552;-69
2023/02/15 08:00:13;;;;;;;23.10;20.30;;;5.70;99.90;;;;;;5003516;28;20210;-69
2023/02/15 08:02:39;;;;;;;23.40;20.70;;;5.60;99.90;;;;;;5005635;28;20444;-68
2023/02/15 08:05:05;;;;;;;28.20;20.50;;;6.00;99.90;;;;;;5012361;28;20441;-68
2023/02/15 08:07:31;;;;;;;28.30;19.63;;;6.20;99.90;;;;;;5001136;28;20441;-69
2023/02/15 08:09:56;;;;;;;26.63;20.60;;;6.50;99.90;;;;;;5001498;28;20466;-68
2023/02/15 08:12:22;;;;;;;25.67;20.43;;;6.50;99.90;;;;;;5007320;28;20207;-68
2023/02/15 08:14:47;;;;;;;24.70;20.07;;;6.80;99.90;;;;;;5000653;28;20180;-68
2023/02/15 08:17:13;;;;;;;23.10;19.70;;;7.10;99.90;;;;;;5007529;28;20530;-68
2023/02/15 08:19:38;;;;;;;22.03;19.40;;;7.20;99.90;;;;;;4999639;28;20230;-68
2023/02/15 08:22:06;;;;;;;22.73;18.97;;;7.50;99.90;;;;;;5002977;28;20175;-69
2023/02/15 08:24:34;;;;;;;23.80;20.57;;;8.00;99.90;;;;;;5005331;28;20238;-68
2023/02/15 08:27:02;;;;;;;26.63;21.30;;;8.30;99.90;;;;;;5006803;28;20442;-68
2023/02/15 08:29:29;;;;;;;32.60;24.70;;;8.70;99.90;;;;;;5004423;28;20457;-69
2023/02/15 08:32:02;;;;;;;30.30;26.17;;;9.10;99.90;;;;;;5008361;28;20502;-69
2023/02/15 08:34:29;;;;;;;27.97;24.47;;;9.30;99.90;;;;;;5005650;28;20438;-69
2023/02/15 08:36:55;;;;;;;28.87;23.80;;;9.60;99.90;;;;;;5005345;28;20445;-69
2023/02/15 08:39:21;;;;;;;27.33;24.10;;;9.90;99.90;;;;;;4998509;28;20458;-69
2023/02/15 08:41:47;;;;;;;26.53;23.97;;;10.20;99.90;;;;;;5004898;28;20652;-69
2023/02/15 08:44:16;;;;;;;28.30;24.00;;;10.50;99.90;;;;;;5004116;28;20176;-69
2023/02/15 08:46:43;;;;;;;23.50;21.13;;;11.10;99.90;;;;;;5005303;28;20430;-69
2023/02/15 08:49:13;;;;;;;25.73;22.97;;;11.60;99.90;;;;;;5003883;28;20539;-69
2023/02/15 08:51:39;;;;;;;23.67;21.27;;;11.70;99.90;;;;;;5006353;28;20466;-69
2023/02/15 08:54:08;;;;;;;24.03;21.70;;;12.10;99.90;;;;;;5011450;28;20438;-69
2023/02/15 08:56:36;;;;;;;24.40;21.80;;;12.90;99.90;;;;;;5003941;28;20441;-70
2023/02/15 08:59:02;;;;;;;23.33;20.90;;;13.10;98.60;;;;;;5011592;28;20473;-69
2023/02/15 09:01:30;;;;;;;22.97;20.70;;;12.70;97.60;;;;;;5011582;28;20434;-70
2023/02/15 09:04:10;;;;;;;25.50;22.83;;;13.00;98.40;;;;;;5003978;28;20525;-70
2023/02/15 09:06:37;;;;;;;24.00;21.67;;;13.80;96.60;;;;;;5006751;28;20444;-70
2023/02/15 09:09:03;;;;;;;22.90;20.20;;;14.10;94.20;;;;;;5003678;28;20885;-70
2023/02/15 09:11:30;;;;;;;24.67;22.37;;;14.20;93.60;;;;;;5005861;28;20501;-70
2023/02/15 09:13:59;;;;;;;25.00;22.57;;;14.90;92.80;;;;;;5001657;28;20438;-69
2023/02/15 09:16:27;;;;;;;26.30;23.70;;;15.50;88.40;;;;;;5002865;28;20811;-70
2023/02/15 09:18:53;;;;;;;24.43;21.93;;;15.10;88.10;;;;;;5007727;28;20485;-70
2023/02/15 09:21:21;;;;;;;24.27;21.67;;;15.20;87.30;;;;;;5006649;28;20446;-70
2023/02/15 09:23:50;;;;;;;23.93;21.70;;;16.20;83.70;;;;;;5000741;28;20438;-70
2023/02/15 09:26:18;;;;;;;23.77;21.67;;;16.50;80.00;;;;;;5001533;28;20466;-70
2023/02/15 09:28:45;;;;;;;25.77;23.20;;;16.60;78.70;;;;;;5005867;28;20465;-70
2023/02/15 09:31:16;;;;;;;25.60;23.10;;;17.20;75.60;;;;;;4993000;28;20470;-70
2023/02/15 09:33:45;;;;;;;26.30;23.77;;;16.90;73.90;;;;;;5010984;28;20796;-70
2023/02/15 09:36:22;;;;;;;24.80;22.60;;;16.60;74.00;;;;;;5000040;28;20524;-70
2023/02/15 09:39:12;;;;;;;27.00;24.30;;;17.20;72.90;;;;;;5008969;28;20453;-69
2023/02/15 09:42:06;;;;;;;24.87;22.43;;;17.80;69.70;;;;;;5006797;28;20434;-70
2023/02/15 09:44:50;;;;;;;25.27;22.90;;;18.00;67.40;;;;;;4998883;28;20454;-70
2023/02/15 09:47:34;;;;;;;25.17;22.63;;;17.90;65.90;;;;;;5006508;28;20600;-70
2023/02/15 09:50:12;;;;;;;25.80;23.17;;;19.00;64.50;;;;;;5011587;28;20508;-70
2023/02/15 09:52:48;;;;;;;25.30;22.90;;;18.80;61.50;;;;;;4995406;28;20464;-70
2023/02/15 09:55:22;;;;;;;26.10;23.57;;;19.60;61.00;;;;;;5009391;28;20462;-70
2023/02/15 09:58:11;;;;;;;24.77;22.57;;;19.50;58.60;;;;;;5004431;28;20429;-70
2023/02/15 10:01:03;;;;;;;23.03;21.03;;;19.20;58.30;;;;;;5002141;28;20444;-70
2023/02/15 10:03:42;;;;;;;26.50;24.17;;;19.10;58.70;;;;;;5002256;28;20437;-69
2023/02/15 10:06:23;;;;;;;24.63;22.30;;;19.20;58.00;;;;;;5007899;28;20444;-72
2023/02/15 10:09:13;;;;;;;25.63;23.33;;;20.00;57.30;;;;;;5001199;28;20452;-70
2023/02/15 10:12:09;;;;;;;26.67;24.07;;;20.30;55.50;;;;;;5002738;28;20457;-70
2023/02/15 10:14:56;;;;;;;26.30;23.90;;;20.90;54.20;;;;;;5003607;28;20463;-70
2023/02/15 10:17:40;;;;;;;23.63;21.63;;;21.80;52.30;;;;;;5009329;28;20953;-70
2023/02/15 10:20:43;;;;;;;24.37;22.17;;;22.40;50.70;;;;;;4999863;28;20496;-70
2023/02/15 10:23:30;;;;;;;24.50;22.23;;;22.90;50.00;;;;;;5002976;28;20433;-70
2023/02/15 10:26:13;;;;;;;26.67;24.33;;;23.10;48.40;;;;;;4998639;28;20448;-70
2023/02/15 10:29:20;;;;;;;25.67;23.20;;;23.00;48.20;;;;;;5003361;28;20468;-70
2023/02/15 10:32:11;;;;;;;24.30;22.10;;;24.20;48.60;;;;;;4997519;28;20520;-70
2023/02/15 10:34:50;;;;;;;26.37;23.97;;;24.90;44.50;;;;;;5006908;28;20434;-70
2023/02/15 10:37:24;;;;;;;24.53;22.03;;;24.70;43.70;;;;;;5009945;28;20980;-70
2023/02/15 10:40:07;;;;;;;24.57;22.13;;;25.50;42.30;;;;;;5007155;28;20544;-71
2023/02/15 10:42:54;;;;;;;26.10;23.80;;;25.90;41.70;;;;;;4997501;28;21105;-69
2023/02/15 10:45:40;;;;;;;23.53;21.50;;;25.40;41.60;;;;;;5005188;28;20822;-70
2023/02/15 10:48:46;;;;;;;24.80;22.20;;;25.80;41.00;;;;;;5002986;28;20429;-70
2023/02/15 10:51:27;;;;;;;22.33;20.33;;;25.60;40.20;;;;;;5004369;28;20492;-71
2023/02/15 10:54:12;;;;;;;24.67;21.97;;;25.70;39.30;;;;;;5007847;28;20572;-70
2023/02/15 10:57:03;;;;;;;24.90;22.50;;;25.40;39.60;;;;;;5008486;28;20438;-71
2023/02/15 10:59:53;;;;;;;23.03;21.13;;;25.20;39.80;;;;;;5007841;28;20474;-70
2023/02/15 11:02:34;;;;;;;23.87;21.77;;;25.50;39.20;;;;;;5017608;28;21002;-70
2023/02/15 11:05:20;;;;;;;23.70;21.53;;;25.80;40.60;;;;;;5008540;28;20470;-70
2023/02/15 11:07:49;;;;;;;23.57;21.47;;;26.90;41.80;;;;;;5007344;28;20488;-70
2023/02/15 11:10:42;;;;;;;22.07;20.17;;;27.40;40.50;;;;;;5010251;28;20987;-70
2023/02/15 11:13:18;;;;;;;23.40;21.27;;;28.50;41.80;;;;;;5007801;28;21006;-70
2023/02/15 11:15:56;;;;;;;23.63;21.40;;;27.80;42.00;;;;;;5007789;28;20446;-70
2023/02/15 11:18:51;;;;;;;22.53;20.60;;;27.70;41.30;;;;;;5011539;28;20453;-70
2023/02/15 11:21:24;;;;;;;22.47;20.47;;;27.00;41.70;;;;;;5016190;28;20547;-70
2023/02/15 11:23:51;;;;;;;24.77;22.40;;;26.70;41.70;;;;;;5011996;28;20954;-70
2023/02/15 11:26:32;;;;;;;28.83;25.30;;;27.10;42.00;;;;;;5002584;28;20935;-70
2023/02/15 11:29:14;;;;;;;24.20;22.00;;;26.90;41.60;;;;;;5014602;28;20871;-70
2023/02/15 11:31:52;;;;;;;23.03;20.90;;;27.10;41.50;;;;;;5005957;28;20452;-70
2023/02/15 11:34:29;;;;;;;23.80;21.57;;;26.90;41.20;;;;;;5008364;28;20452;-70
2023/02/15 11:36:58;;;;;;;25.70;23.20;;;27.50;41.10;;;;;;5010364;28;20529;-69
2023/02/15 11:39:28;;;;;;;24.43;22.23;;;27.30;40.50;;;;;;5012645;28;20882;-69
2023/02/15 11:41:57;;;;;;;25.90;22.97;;;27.50;40.90;;;;;;5004391;28;20466;-69
2023/02/15 11:44:32;;;;;;;27.63;23.43;;;28.00;40.10;;;;;;5010347;28;20438;-69
2023/02/15 11:46:58;;;;;;;25.20;22.80;;;28.40;39.50;;;;;;5002436;28;20495;-69
2023/02/15 11:49:29;;;;;;;25.33;22.83;;;28.50;39.60;;;;;;5008644;28;20493;-69
2023/02/15 11:51:56;;;;;;;29.80;26.80;;;28.60;39.10;;;;;;5008812;28;20186;-69
2023/02/15 11:54:27;;;;;;;26.90;24.27;;;28.00;39.30;;;;;;5016358;28;20440;-69
2023/02/15 11:57:00;;;;;;;27.47;24.60;;;28.50;39.10;;;;;;5019817;28;20429;-69
2023/02/15 11:59:40;;;;;;;26.93;24.67;;;28.60;39.00;;;;;;5009681;28;20488;-69
2023/02/15 12:02:18;;;;;;;27.70;25.40;;;28.30;39.10;;;;;;5004250;28;20544;-71
2023/02/15 12:04:52;;;;;;;26.00;23.80;;;28.20;38.90;;;;;;5007533;28;20475;-69
2023/02/15 12:07:30;;;;;;;28.57;26.07;;;28.60;39.90;;;;;;5010488;28;20505;-69
2023/02/15 12:10:13;;;;;;;27.43;24.80;;;28.20;39.60;;;;;;5000551;28;20903;-68
2023/02/15 12:12:39;;;;;;;26.40;24.10;;;28.40;39.80;;;;;;5004902;28;20449;-69
2023/02/15 12:15:07;;;;;;;25.47;23.17;;;29.20;38.90;;;;;;5013789;28;20441;-69
2023/02/15 12:17:38;;;;;;;26.30;23.80;;;28.60;38.20;;;;;;5001317;28;20274;-69
2023/02/15 12:20:12;;;;;;;27.60;23.53;;;28.00;38.80;;;;;;4994872;28;20462;-69
2023/02/15 12:22:39;;;;;;;27.87;25.40;;;27.40;39.00;;;;;;5004786;28;20469;-69
2023/02/15 12:25:22;;;;;;;27.40;25.03;;;27.30;39.40;;;;;;5007119;28;20453;-68
2023/02/15 12:27:48;;;;;;;25.23;22.70;;;26.80;39.40;;;;;;5006505;28;20444;-68
2023/02/15 12:30:31;;;;;;;26.63;24.10;;;27.40;39.80;;;;;;5006888;28;20458;-67
2023/02/15 12:33:05;;;;;;;26.83;24.37;;;28.90;38.80;;;;;;5008794;28;20921;-68
2023/02/15 12:35:33;;;;;;;26.90;24.40;;;29.80;35.70;;;;;;5001987;28;20972;-68
2023/02/15 12:38:10;;;;;;;27.70;25.20;;;30.20;34.50;;;;;;5005474;28;20434;-68
2023/02/15 12:40:37;;;;;;;26.77;24.17;;;29.60;34.40;;;;;;5007966;28;20781;-68
2023/02/15 12:43:08;;;;;;;25.97;23.67;;;28.90;34.80;;;;;;5005839;28;20488;-68
2023/02/15 12:45:37;;;;;;;27.03;24.63;;;28.30;35.00;;;;;;5011104;28;20441;-68
2023/02/15 12:48:17;;;;;;;24.87;22.43;;;28.40;35.20;;;;;;5016295;28;20433;-68
2023/02/15 12:50:45;;;;;;;25.00;23.00;;;29.30;34.00;;;;;;5006420;28;20439;-68
2023/02/15 12:53:18;;;;;;;26.93;24.40;;;30.00;33.60;;;;;;5002067;28;21101;-68
2023/02/15 12:55:55;;;;;;;26.80;24.00;;;30.50;33.80;;;;;;5005309;28;20450;-68
2023/02/15 12:58:32;;;;;;;27.67;25.30;;;30.30;35.20;;;;;;5004838;28;20470;-68
2023/02/15 13:01:08;;;;;;;26.20;23.80;;;30.10;35.10;;;;;;4999589;28;20496;-68
2023/02/15 13:03:34;;;;;;;27.40;24.73;;;30.00;35.90;;;;;;4998730;28;20437;-68
2023/02/15 13:06:02;;;;;;;27.73;24.97;;;30.60;35.30;;;;;;5006175;28;20444;-68
2023/02/15 13:08:45;;;;;;;28.33;25.70;;;30.70;35.30;;;;;;5008938;28;20520;-68
2023/02/15 13:11:12;;;;;;;26.87;24.43;;;31.10;36.20;;;;;;5002060;28;20804;-68
2023/02/15 13:13:53;;;;;;;25.80;23.70;;;30.60;33.60;;;;;;5009190;28;20464;-67
2023/02/15 13:16:30;;;;;;;25.77;23.57;;;31.00;34.70;;;;;;5008124;28;20433;-69